Terminal Aerodrome Forecast
Issued by NWS

Home | Current Version | Previous Version | Text Only | Print | Product List | Glossary Off
Versions: 1 2 3 4 5 6 7 8 9 10 11 12 13 14

000
FTUS43 KMPX 010520
TAFRWF
TAF
KRWF 010520Z 0106/0206 VRB03KT P6SM SKC
     FM011500 21008KT P6SM SCT100
     FM020000 24008KT P6SM SCT080 PROB30 0200/0204 4SM TSRA
      OVC060CB=

USA.gov is the U.S. government's official web portal to all federal, state and local government web resources and services.